EBAW/ANR METAR and TAF weather

Enter ICAO airport designator
Station Type Date Time Source
EBAW METAR 2021/04/18 01:20 UTC NOAA

EBAW 180120Z AUTO 35004KT CAVOK 05/03 Q1024


Station Type Date Time Source
EBAW Decoded METAR 2021/04/18 01:20 UTC NOAA

Antwerpen / Deurne, Belgium (EBAW) 51-12N 004-28E 14M
Apr 17, 2021 - 09:20 PM EDT / 2021.04.18 0120 UTC
Wind: from the N (350 degrees) at 5 MPH (4 KT):0
Visibility: greater than 7 mile(s):0
Temperature: 41 F (5 C)
Dew Point: 37 F (3 C)
Relative Humidity: 86%
Pressure (altimeter): 30.24 in. Hg (1024 hPa)
ob: EBAW 180120Z AUTO 35004KT CAVOK 05/03 Q1024
cycle: 1

Station Type Date Time Source
EBAW TAF 2020/09/23 00:30 UTC NOAA

TAF TAF EBAW 232300Z 2400/2412 25011KT 9999 SCT030

Example: see airport list